Time;durP1;ratioP1;P1;durP2;ratioP2;P2;SDS_P1;SDS_P2;PMS_P1;PMS_P2;Temp;Humidity;BMP_temperature;BMP_pressure;BME280_temperature;BME280_humidity;BME280_pressure;Samples;Min_cycle;Max_cycle;Signal;HPM_P1;HPM_P2
2023/09/28 00:03:03;;;;;;;9.15;4.85;;;;;;;23.50;68.59;100998.47;5092558;28;20056;-53
2023/09/28 00:05:31;;;;;;;;;;;;;;;23.47;68.73;101002.06;5093071;28;20052;-55
2023/09/28 00:08:00;;;;;;;9.30;4.45;;;;;;;23.48;68.58;100995.25;5088118;28;20399;-56
2023/09/28 00:10:28;;;;;;;9.30;4.43;;;;;;;23.45;68.93;100998.03;5072147;28;20568;-54
2023/09/28 00:12:55;;;;;;;8.18;4.15;;;;;;;23.37;69.42;100988.75;5082744;28;20063;-60
2023/09/28 00:15:27;;;;;;;8.20;4.40;;;;;;;23.35;69.24;100989.16;5088588;28;20048;-53
2023/09/28 00:17:54;;;;;;;10.80;4.40;;;;;;;23.34;69.35;100992.34;5092252;28;20044;-54
2023/09/28 00:20:22;;;;;;;10.93;5.15;;;;;;;23.40;68.84;100996.38;5092792;28;20048;-55
2023/09/28 00:22:52;;;;;;;9.77;4.43;;;;;;;23.37;69.14;100998.00;5097981;28;20430;-56
2023/09/28 00:25:22;;;;;;;7.30;4.10;;;;;;;23.37;69.23;100995.19;5094596;28;20057;-52
2023/09/28 00:27:52;;;;;;;9.82;4.40;;;;;;;23.37;69.15;100997.19;5092112;28;20733;-54
2023/09/28 00:30:21;;;;;;;;;;;;;;;23.43;68.94;100998.44;5065970;28;20052;-54
2023/09/28 00:32:51;;;;;;;7.72;4.18;;;;;;;23.41;68.88;101004.44;5075444;28;19924;-57
2023/09/28 00:35:19;;;;;;;8.98;4.13;;;;;;;23.48;68.93;101011.31;5055974;28;20176;-55
2023/09/28 00:37:48;;;;;;;7.97;4.55;;;;;;;23.41;69.19;101020.50;5093004;28;20432;-54
2023/09/28 00:40:20;;;;;;;9.65;4.25;;;;;;;23.46;68.95;101027.75;5074379;28;20048;-56
2023/09/28 00:42:49;;;;;;;9.43;4.65;;;;;;;23.44;68.82;101033.78;5076132;28;20060;-52
2023/09/28 00:45:19;;;;;;;12.35;4.85;;;;;;;23.46;69.11;101031.38;5089636;28;20407;-54
2023/09/28 00:47:51;;;;;;;8.60;4.20;;;;;;;23.51;69.10;101028.19;5095134;28;20044;-55
2023/09/28 00:50:20;;;;;;;10.68;4.35;;;;;;;23.43;69.19;101027.34;5095719;28;20044;-55
2023/09/28 00:53:02;;;;;;;11.40;4.47;;;;;;;23.41;69.17;101023.31;5094330;28;20411;-51
2023/09/28 00:55:30;;;;;;;10.52;4.10;;;;;;;23.36;69.46;101023.69;5076611;28;20049;-54
2023/09/28 00:58:00;;;;;;;8.20;4.15;;;;;;;23.31;69.88;101024.03;5056281;28;20056;-52
2023/09/28 01:00:29;;;;;;;10.20;4.35;;;;;;;23.34;69.69;101028.91;5069387;28;20051;-50
2023/09/28 01:02:59;;;;;;;11.80;4.50;;;;;;;23.30;69.97;101028.06;5077291;28;20529;-52
2023/09/28 01:05:33;;;;;;;7.90;3.92;;;;;;;23.29;69.79;101012.41;5095005;28;20592;-54
2023/09/28 01:08:07;;;;;;;8.98;4.22;;;;;;;23.33;69.54;101018.84;5094936;28;20499;-57
2023/09/28 01:10:35;;;;;;;10.63;4.30;;;;;;;23.31;69.57;101015.59;5095188;28;20399;-52
2023/09/28 01:13:11;;;;;;;7.72;3.97;;;;;;;23.29;69.73;101018.03;5093386;28;20055;-51
2023/09/28 01:15:41;;;;;;;7.88;4.35;;;;;;;23.30;69.97;101014.00;5065114;28;20056;-52
2023/09/28 01:18:16;;;;;;;11.02;4.25;;;;;;;23.25;69.82;101005.91;5068561;28;20395;-53
2023/09/28 01:20:46;;;;;;;10.27;4.35;;;;;;;23.25;69.82;101006.72;5091401;28;20055;-54
2023/09/28 01:23:13;;;;;;;8.40;3.50;;;;;;;23.27;69.59;101003.53;5088332;28;20075;-54
2023/09/28 01:25:44;;;;;;;9.02;3.90;;;;;;;23.25;69.81;101015.16;5094827;28;20490;-51
2023/09/28 01:28:11;;;;;;;;;;;;;;;23.22;70.04;101018.72;5072983;28;20055;-54
2023/09/28 01:30:38;;;;;;;9.43;3.75;;;;;;;23.26;69.46;101022.38;5078998;28;19921;-57
2023/09/28 01:33:09;;;;;;;8.03;4.10;;;;;;;23.24;69.84;101027.59;5060328;28;20055;-51
2023/09/28 01:35:37;;;;;;;7.25;3.53;;;;;;;23.23;69.59;101025.16;5094308;28;20048;-52
2023/09/28 01:38:10;;;;;;;7.18;3.90;;;;;;;23.24;70.06;101029.63;5064732;28;20059;-54
2023/09/28 01:40:38;;;;;;;9.35;4.03;;;;;;;23.21;70.02;101036.81;5045742;28;20373;-56
2023/09/28 01:43:05;;;;;;;7.35;3.33;;;;;;;23.25;69.81;101045.28;5056853;28;20056;-56
2023/09/28 01:45:36;;;;;;;8.73;3.55;;;;;;;23.27;69.71;101040.06;5056441;28;20048;-53
2023/09/28 01:48:04;;;;;;;12.38;4.03;;;;;;;23.29;69.43;101043.31;5064090;28;20047;-53
2023/09/28 01:50:32;;;;;;;8.77;3.67;;;;;;;23.27;69.90;101040.88;5093992;28;20052;-56
2023/09/28 01:53:00;;;;;;;9.95;3.70;;;;;;;23.26;69.43;101038.44;5073730;28;20059;-57
2023/09/28 01:55:28;;;;;;;8.27;3.25;;;;;;;23.28;69.35;101047.31;5075371;28;20036;-55
2023/09/28 01:57:55;;;;;;;9.15;3.80;;;;;;;23.27;69.35;101054.13;5057755;28;20052;-51
2023/09/28 02:00:25;;;;;;;7.30;3.75;;;;;;;23.28;69.39;101047.31;5072510;28;20056;-59
2023/09/28 02:02:55;;;;;;;6.90;3.33;;;;;;;23.28;69.64;101052.94;5094236;28;20047;-55
2023/09/28 02:05:23;;;;;;;10.20;3.53;;;;;;;23.30;69.33;101053.38;5094335;28;20059;-55
2023/09/28 02:07:50;;;;;;;9.57;3.80;;;;;;;23.35;69.10;101053.00;5070605;28;20059;-56
2023/09/28 02:10:20;;;;;;;8.55;3.75;;;;;;;23.27;69.56;101057.75;5075745;28;20048;-55
2023/09/28 02:12:47;;;;;;;9.27;3.85;;;;;;;23.24;69.69;101054.91;5075144;28;20048;-55
2023/09/28 02:15:15;;;;;;;7.43;3.55;;;;;;;23.24;69.75;101061.31;5058919;28;20053;-54
2023/09/28 02:17:44;;;;;;;7.85;3.35;;;;;;;23.20;69.92;101049.25;5055781;28;20056;-55
2023/09/28 02:20:15;;;;;;;7.87;3.60;;;;;;;23.15;69.95;101049.59;5059296;28;20052;-56
2023/09/28 02:22:44;;;;;;;9.27;3.78;;;;;;;23.16;70.31;101042.81;5084968;28;20552;-56
2023/09/28 02:25:15;;;;;;;6.40;3.42;;;;;;;23.19;69.90;101046.81;5057257;28;20052;-59
2023/09/28 02:27:42;;;;;;;8.93;3.78;;;;;;;23.21;69.94;101044.44;5089143;28;20051;-57
2023/09/28 02:30:12;;;;;;;9.20;3.92;;;;;;;23.22;69.98;101051.69;5090104;28;20055;-55
2023/09/28 02:32:43;;;;;;;6.72;2.88;;;;;;;23.20;70.02;101052.06;5075052;28;20059;-55
2023/09/28 02:35:14;;;;;;;9.77;3.60;;;;;;;23.19;70.17;101058.88;5075634;28;20048;-53
2023/09/28 02:37:44;;;;;;;9.02;3.33;;;;;;;23.20;70.15;101049.25;5075468;28;20059;-54
2023/09/28 02:40:12;;;;;;;7.47;3.22;;;;;;;23.17;70.57;101050.03;5075061;28;20048;-56
2023/09/28 02:42:41;;;;;;;8.13;3.40;;;;;;;23.22;70.05;101057.31;5093420;28;20052;-55
2023/09/28 02:45:12;;;;;;;6.27;3.20;;;;;;;23.23;70.23;101056.09;5074510;28;20048;-54
2023/09/28 02:47:44;;;;;;;8.07;3.33;;;;;;;23.24;70.00;101046.47;5077059;28;20291;-54
2023/09/28 02:50:13;;;;;;;11.02;3.72;;;;;;;23.19;70.02;101039.19;5091937;28;20044;-55
2023/09/28 02:52:43;;;;;;;8.45;3.60;;;;;;;23.20;70.29;101037.19;5067968;28;20052;-53
2023/09/28 02:55:11;;;;;;;7.33;3.33;;;;;;;23.18;70.30;101042.41;5085577;28;20052;-54
2023/09/28 02:57:41;;;;;;;7.93;3.15;;;;;;;23.17;70.32;101040.81;5066258;28;20298;-56
2023/09/28 03:00:27;;;;;;;7.32;3.40;;;;;;;23.15;70.50;101040.38;5092704;28;20054;-53
2023/09/28 03:02:58;;;;;;;9.55;3.55;;;;;;;23.17;70.70;101050.03;5090367;28;20406;-53
2023/09/28 03:05:28;;;;;;;9.32;3.72;;;;;;;23.21;70.37;101062.09;5074947;28;20134;-54
2023/09/28 03:07:55;;;;;;;8.85;3.55;;;;;;;23.26;70.35;101066.53;5092995;28;20044;-56
2023/09/28 03:10:24;;;;;;;8.90;3.55;;;;;;;23.21;70.66;101066.91;5077451;28;20043;-53
2023/09/28 03:12:55;;;;;;;7.25;3.28;;;;;;;23.20;70.83;101057.69;5093499;28;20052;-53
2023/09/28 03:15:22;;;;;;;7.82;2.97;;;;;;;23.19;70.81;101053.25;5082999;28;20052;-56
2023/09/28 03:17:50;;;;;;;10.30;3.70;;;;;;;23.22;70.59;101060.13;5067616;28;20063;-56
2023/09/28 03:20:19;;;;;;;7.95;3.05;;;;;;;23.22;70.41;101058.09;5061223;28;20044;-56
2023/09/28 03:22:49;;;;;;;10.63;3.40;;;;;;;23.19;70.58;101070.13;5081455;28;20093;-55
2023/09/28 03:25:21;;;;;;;10.63;3.45;;;;;;;23.22;70.30;101066.53;5054638;28;20048;-57
2023/09/28 03:27:51;;;;;;;8.27;3.45;;;;;;;23.17;70.67;101071.72;5073498;28;20068;-56
2023/09/28 03:30:23;;;;;;;6.88;3.28;;;;;;;23.18;70.68;101082.56;5091162;28;20044;-54
2023/09/28 03:32:52;;;;;;;9.40;3.05;;;;;;;23.15;70.70;101085.34;5086876;28;20439;-56
2023/09/28 03:35:20;;;;;;;8.25;3.42;;;;;;;23.18;70.68;101079.75;5090369;28;20051;-56
2023/09/28 03:37:48;;;;;;;10.05;4.07;;;;;;;23.16;70.59;101073.72;5089169;28;20048;-55
2023/09/28 03:40:16;;;;;;;8.45;3.63;;;;;;;23.01;70.97;101085.22;5078421;28;20036;-53
2023/09/28 03:42:50;;;;;;;7.25;3.35;;;;;;;23.03;71.13;101086.44;5074802;28;20060;-54
2023/09/28 03:45:20;;;;;;;7.38;3.60;;;;;;;23.05;71.38;101083.25;5089199;28;20052;-53
2023/09/28 03:47:52;;;;;;;7.90;3.47;;;;;;;23.08;71.33;101088.88;5089325;28;20051;-56
2023/09/28 03:50:21;;;;;;;8.50;3.22;;;;;;;23.13;70.83;101090.56;5083704;28;20040;-51
2023/09/28 03:52:49;;;;;;;19.10;4.00;;;;;;;23.07;70.71;101083.66;5087162;28;20532;-53
2023/09/28 03:55:18;;;;;;;10.98;4.30;;;;;;;22.97;71.20;101101.25;5089071;28;20049;-55
2023/09/28 03:57:46;;;;;;;13.52;3.92;;;;;;;21.68;70.04;101113.31;5090235;28;20467;-55
2023/09/28 04:00:15;;;;;;;12.88;3.58;;;;;;;20.78;73.87;101102.97;5096497;28;20418;-55
2023/09/28 04:02:48;;;;;;;12.80;3.60;;;;;;;21.57;73.25;101103.91;5096170;28;20067;-52
2023/09/28 04:05:19;;;;;;;16.10;3.53;;;;;;;21.78;74.60;101097.84;5066275;28;20059;-54
2023/09/28 04:07:46;;;;;;;14.98;3.50;;;;;;;22.16;72.51;101100.34;5066838;28;20052;-56
2023/09/28 04:10:14;;;;;;;14.68;3.58;;;;;;;21.93;72.83;101106.06;5095353;28;20051;-56
2023/09/28 04:12:42;;;;;;;13.85;4.20;;;;;;;21.11;73.73;101110.81;5081050;28;20052;-55
2023/09/28 04:15:10;;;;;;;12.57;3.53;;;;;;;21.62;70.95;101112.00;5080416;28;20049;-52
2023/09/28 04:17:37;;;;;;;15.45;4.03;;;;;;;20.96;73.75;101125.69;5075530;28;20049;-55
2023/09/28 04:20:10;;;;;;;18.23;3.80;;;;;;;21.24;73.82;101127.03;5084645;28;20041;-53
2023/09/28 04:22:37;;;;;;;11.43;3.30;;;;;;;21.94;73.90;101130.13;5084909;28;20051;-52
2023/09/28 04:25:05;;;;;;;12.45;3.70;;;;;;;21.98;69.58;101133.81;5092088;28;20067;-53
2023/09/28 04:27:33;;;;;;;14.95;3.78;;;;;;;20.95;70.59;101140.91;5087569;28;20134;-56
2023/09/28 04:30:00;;;;;;;17.00;3.55;;;;;;;21.61;73.87;101140.41;5089803;28;20051;-55
2023/09/28 04:32:27;;;;;;;18.85;3.97;;;;;;;21.20;70.77;101140.16;5094694;28;20067;-54
2023/09/28 04:34:55;;;;;;;18.40;4.22;;;;;;;20.52;73.31;101144.09;5077194;28;20067;-50
2023/09/28 04:37:23;;;;;;;20.73;4.18;;;;;;;20.95;69.70;101144.53;5069698;28;20047;-53
2023/09/28 04:39:52;;;;;;;15.88;4.00;;;;;;;21.64;71.88;101140.47;5095229;28;20384;-52
2023/09/28 04:42:22;;;;;;;17.65;4.32;;;;;;;21.56;64.91;101137.94;5086990;28;20051;-55
2023/09/28 04:44:49;;;;;;;;;;;;;;;21.91;69.54;101141.31;5095147;28;20047;-54
2023/09/28 04:47:17;;;;;;;13.60;3.90;;;;;;;21.97;68.54;101145.38;5095806;28;19928;-52
2023/09/28 04:49:45;;;;;;;12.25;3.15;;;;;;;22.29;69.48;101144.63;5094001;28;20036;-56
2023/09/28 04:52:13;;;;;;;12.00;3.35;;;;;;;22.54;67.09;101144.97;5090763;28;20063;-54
2023/09/28 04:54:41;;;;;;;10.35;3.60;;;;;;;22.67;66.60;101151.91;5095761;28;20056;-55
2023/09/28 04:57:09;;;;;;;17.80;4.10;;;;;;;22.15;65.19;101138.84;5081195;28;20515;-54
2023/09/28 04:59:40;;;;;;;19.08;4.15;;;;;;;20.72;65.19;101143.69;5095222;28;20043;-53
2023/09/28 05:02:08;;;;;;;18.63;3.75;;;;;;;20.43;70.83;101146.28;5083279;28;20060;-52
2023/09/28 05:04:36;;;;;;;18.67;3.67;;;;;;;21.45;71.78;101137.78;5089166;28;20039;-56
2023/09/28 05:07:04;;;;;;;17.17;3.50;;;;;;;21.71;68.88;101134.16;5090245;28;20056;-53
2023/09/28 05:09:33;;;;;;;20.45;3.92;;;;;;;20.84;67.00;101143.50;5076178;28;20063;-51
2023/09/28 05:12:01;;;;;;;13.38;3.50;;;;;;;20.28;75.43;101159.19;5057440;28;20055;-54
2023/09/28 05:14:31;;;;;;;14.35;3.40;;;;;;;21.67;68.28;101150.94;5059395;28;20056;-55
2023/09/28 05:16:59;;;;;;;14.25;3.20;;;;;;;21.97;67.91;101156.59;5076192;28;20040;-56
2023/09/28 05:19:29;;;;;;;16.15;4.18;;;;;;;22.25;66.67;101152.19;5075826;28;20056;-56
2023/09/28 05:21:57;;;;;;;14.45;3.60;;;;;;;21.99;67.38;101151.41;5088492;28;20056;-58
2023/09/28 05:24:24;;;;;;;20.10;4.13;;;;;;;21.63;66.65;101155.69;5084753;28;20055;-53
2023/09/28 05:26:51;;;;;;;17.08;3.78;;;;;;;21.52;67.96;101157.50;5094564;28;20051;-56
2023/09/28 05:29:19;;;;;;;17.40;3.58;;;;;;;22.18;66.70;101154.91;5085125;28;20059;-54
2023/09/28 05:31:46;;;;;;;17.75;3.92;;;;;;;22.61;64.17;101161.88;5087136;28;20048;-55
2023/09/28 05:34:14;;;;;;;33.83;5.70;;;;;;;22.27;63.69;101161.03;5094712;28;20044;-54
2023/09/28 05:36:41;;;;;;;41.17;5.25;;;;;;;21.81;64.32;101167.22;5090125;28;20075;-53
2023/09/28 05:39:09;;;;;;;23.48;4.68;;;;;;;22.01;65.37;101177.91;5091642;28;20055;-55
2023/09/28 05:41:36;;;;;;;26.40;5.03;;;;;;;22.33;63.52;101176.34;5093859;28;20486;-55
2023/09/28 05:44:04;;;;;;;17.65;3.42;;;;;;;22.57;63.04;101194.72;5094387;28;20066;-56
2023/09/28 05:46:32;;;;;;;22.63;4.80;;;;;;;22.46;59.06;101192.94;5094512;28;20056;-54
2023/09/28 05:48:59;;;;;;;21.63;4.32;;;;;;;22.55;62.87;101204.72;5094107;28;20044;-53
2023/09/28 05:51:27;;;;;;;22.08;4.38;;;;;;;22.21;61.53;101204.66;5068999;28;20052;-57
2023/09/28 05:53:55;;;;;;;14.88;3.72;;;;;;;22.17;62.09;101211.41;5075709;28;20052;-59
2023/09/28 05:56:22;;;;;;;18.55;3.75;;;;;;;22.64;62.44;101210.84;5085852;28;20071;-55
2023/09/28 05:58:50;;;;;;;16.92;3.45;;;;;;;22.76;61.67;101196.53;5073738;28;20052;-57
2023/09/28 06:01:18;;;;;;;18.88;4.22;;;;;;;22.88;61.76;101187.84;5087006;28;20076;-54
2023/09/28 06:03:45;;;;;;;26.40;4.50;;;;;;;22.37;60.83;101200.84;5093687;28;20067;-56
2023/09/28 06:06:15;;;;;;;23.27;4.32;;;;;;;22.43;61.87;101202.13;5084308;28;20507;-55
2023/09/28 06:08:43;;;;;;;29.40;4.70;;;;;;;21.86;64.31;101201.31;5083589;28;20055;-58
2023/09/28 06:11:12;;;;;;;20.77;4.15;;;;;;;22.24;63.06;101200.28;5085102;28;20376;-54
2023/09/28 06:13:44;;;;;;;27.95;4.25;;;;;;;21.79;62.87;101198.41;5093959;28;20044;-56
2023/09/28 06:16:31;;;;;;;19.77;4.32;;;;;;;21.47;63.49;101202.69;5083718;28;20622;-54
2023/09/28 06:18:59;;;;;;;18.13;4.03;;;;;;;21.38;65.61;101204.94;5059768;28;20134;-55
2023/09/28 06:21:26;;;;;;;19.58;4.50;;;;;;;22.13;64.22;101205.75;5087267;28;20052;-56
2023/09/28 06:24:12;;;;;;;25.38;4.88;;;;;;;21.97;64.16;101205.09;5061555;28;20053;-53
2023/09/28 06:26:40;;;;;;;22.52;4.82;;;;;;;21.97;63.26;101212.69;5091549;28;20048;-53
2023/09/28 06:29:14;;;;;;;;;;;;;;;22.40;62.10;101216.94;5083855;28;20040;-57
2023/09/28 06:31:42;;;;;;;33.00;4.82;;;;;;;22.41;62.63;101222.16;5085471;28;20407;-54
2023/09/28 06:34:10;;;;;;;20.88;4.45;;;;;;;22.56;61.90;101220.38;5086172;28;20534;-57
2023/09/28 06:36:37;;;;;;;32.95;5.15;;;;;;;22.60;61.59;101230.47;5093092;28;20081;-49
2023/09/28 06:39:08;;;;;;;24.80;4.65;;;;;;;22.62;61.78;101218.84;5071460;28;20064;-49
2023/09/28 06:41:38;;;;;;;21.73;5.13;;;;;;;22.66;60.68;101220.53;5072991;28;20056;-49
2023/09/28 06:44:08;;;;;;;18.80;4.43;;;;;;;22.64;61.76;101222.06;5058167;28;20052;-50
2023/09/28 06:46:36;;;;;;;18.90;5.18;;;;;;;22.54;60.96;101222.72;5093538;28;20058;-52
2023/09/28 06:49:08;;;;;;;16.25;4.07;;;;;;;22.54;60.97;101234.81;5093824;28;20062;-52
2023/09/28 06:51:37;;;;;;;26.77;4.60;;;;;;;21.86;62.59;101229.38;5093366;28;20052;-48
2023/09/28 06:54:05;;;;;;;19.45;4.18;;;;;;;22.26;62.29;101231.59;5092692;28;20059;-53
2023/09/28 06:56:36;;;;;;;21.43;4.23;;;;;;;22.41;61.96;101236.19;5094557;28;20044;-57
2023/09/28 06:59:03;;;;;;;20.35;4.03;;;;;;;22.35;62.82;101235.72;5090573;28;20298;-54
2023/09/28 07:01:31;;;;;;;20.10;4.07;;;;;;;22.50;62.17;101235.91;5085978;28;20052;-54
2023/09/28 07:03:59;;;;;;;22.25;4.32;;;;;;;22.45;61.48;101233.44;5094796;28;20044;-55
2023/09/28 07:06:26;;;;;;;21.48;4.38;;;;;;;22.33;62.56;101212.81;5080388;28;20722;-55
2023/09/28 07:08:54;;;;;;;17.42;4.15;;;;;;;22.46;61.43;101227.44;5092119;28;20051;-53
2023/09/28 07:11:21;;;;;;;23.13;5.20;;;;;;;22.43;61.51;101216.97;5093695;28;20051;-53
2023/09/28 07:13:49;;;;;;;24.17;4.68;;;;;;;22.60;64.88;101226.84;5095959;28;20044;-50
2023/09/28 07:16:16;;;;;;;23.48;4.70;;;;;;;22.55;63.05;101233.59;5091354;28;20051;-51
2023/09/28 07:18:44;;;;;;;21.08;4.05;;;;;;;22.54;63.20;101226.38;5097023;28;20071;-46
2023/09/28 07:21:11;;;;;;;20.10;4.28;;;;;;;22.58;63.28;101235.66;5092372;28;20675;-47
2023/09/28 07:23:41;;;;;;;24.20;4.20;;;;;;;22.52;61.65;101233.53;5045742;28;20112;-46
2023/09/28 07:26:14;;;;;;;21.83;4.90;;;;;;;21.74;62.55;101243.56;5069078;28;20072;-47
2023/09/28 07:28:43;;;;;;;21.00;4.32;;;;;;;21.72;64.06;101262.78;5062700;28;20044;-47
2023/09/28 07:31:11;;;;;;;21.67;4.30;;;;;;;21.98;62.97;101282.50;5086839;28;20494;-47
2023/09/28 07:33:40;;;;;;;24.38;4.38;;;;;;;21.72;59.48;101288.03;5065117;28;20051;-53
2023/09/28 07:36:07;;;;;;;26.17;5.10;;;;;;;21.48;62.10;101290.41;5094323;28;20047;-54
2023/09/28 07:38:35;;;;;;;20.63;4.63;;;;;;;21.96;63.50;101284.84;5096165;28;20048;-51
2023/09/28 07:41:02;;;;;;;23.52;5.00;;;;;;;22.47;61.68;101274.00;5086359;28;20044;-56
2023/09/28 07:43:30;;;;;;;16.35;4.10;;;;;;;22.31;61.30;101276.97;5083766;28;20058;-56
2023/09/28 07:45:57;;;;;;;22.88;4.05;;;;;;;22.44;61.25;101285.19;5091053;28;20056;-54
2023/09/28 07:48:24;;;;;;;19.65;4.53;;;;;;;21.64;63.31;101280.66;5089209;28;20052;-54
2023/09/28 07:50:52;;;;;;;21.65;4.57;;;;;;;21.88;61.74;101294.31;5089695;28;20059;-52
2023/09/28 07:53:19;;;;;;;26.95;4.85;;;;;;;21.81;59.43;101285.00;5093219;28;20048;-56
2023/09/28 07:55:47;;;;;;;25.90;5.53;;;;;;;21.41;57.59;101291.06;5094359;28;20879;-53
2023/09/28 07:58:15;;;;;;;28.65;5.70;;;;;;;21.27;58.57;101290.00;5058685;28;20044;-56
2023/09/28 08:00:53;;;;;;;34.57;6.00;;;;;;;21.27;57.99;101288.00;5075307;28;20523;-57
2023/09/28 08:03:21;;;;;;;24.77;5.18;;;;;;;21.03;59.08;101285.53;5090975;28;20478;-60
2023/09/28 08:05:49;;;;;;;30.27;4.85;;;;;;;21.31;58.47;101280.47;5095553;28;20052;-55
2023/09/28 08:08:18;;;;;;;23.15;4.88;;;;;;;21.82;57.76;101281.81;5095025;28;20052;-57
2023/09/28 08:10:47;;;;;;;22.63;5.00;;;;;;;22.16;56.52;101294.78;5089270;28;20071;-53
2023/09/28 08:13:15;;;;;;;24.92;5.50;;;;;;;22.42;55.68;101291.13;5094442;28;20047;-53
2023/09/28 08:15:44;;;;;;;24.50;4.35;;;;;;;22.50;55.06;101300.47;5095222;28;20059;-54
2023/09/28 08:18:13;;;;;;;20.20;5.18;;;;;;;22.51;55.14;101296.50;5095972;28;20044;-53
2023/09/28 08:20:41;;;;;;;20.23;4.68;;;;;;;22.51;54.79;101297.28;5094552;28;20056;-55
2023/09/28 08:23:21;;;;;;;25.98;5.15;;;;;;;21.82;54.81;101292.22;5091035;28;20056;-53
2023/09/28 08:25:49;;;;;;;22.65;4.93;;;;;;;21.21;56.32;101309.94;5095478;28;20051;-53
2023/09/28 08:28:16;;;;;;;23.90;5.43;;;;;;;21.35;58.69;101319.78;5071662;28;20052;-58
2023/09/28 08:30:43;;;;;;;24.58;5.32;;;;;;;21.64;57.14;101321.91;5092072;28;20048;-54
2023/09/28 08:33:11;;;;;;;18.67;4.38;;;;;;;22.05;56.09;101319.06;5089937;28;20078;-56
2023/09/28 08:35:38;;;;;;;20.17;5.20;;;;;;;22.44;54.23;101321.66;5095342;28;20052;-58
2023/09/28 08:38:05;;;;;;;25.65;5.22;;;;;;;22.10;55.39;101332.78;5095344;28;20048;-55
2023/09/28 08:40:33;;;;;;;21.63;4.95;;;;;;;20.59;57.68;101335.34;5095565;28;20048;-50
2023/09/28 08:43:04;;;;;;;19.40;4.50;;;;;;;21.27;59.24;101334.84;5059186;28;20048;-56
2023/09/28 08:45:32;;;;;;;31.88;4.63;;;;;;;21.72;57.33;101327.28;5086064;28;20048;-51
2023/09/28 08:48:01;;;;;;;28.13;5.90;;;;;;;21.63;56.35;101323.09;5080261;28;20045;-56
2023/09/28 08:50:33;;;;;;;20.35;4.25;;;;;;;21.93;56.37;101324.84;5084520;28;20407;-57
2023/09/28 08:53:03;;;;;;;20.20;4.63;;;;;;;22.44;54.77;101330.88;5090534;28;20044;-56
2023/09/28 08:55:33;;;;;;;17.15;4.05;;;;;;;22.46;54.75;101328.50;5095583;28;20051;-55
2023/09/28 08:58:02;;;;;;;19.25;4.72;;;;;;;22.69;54.01;101317.22;5093142;28;20056;-54
2023/09/28 09:00:29;;;;;;;21.23;4.47;;;;;;;22.79;53.72;101311.75;5072977;28;20056;-54
2023/09/28 09:02:58;;;;;;;17.27;4.22;;;;;;;22.82;53.71;101304.56;5061259;28;20044;-57
2023/09/28 09:05:29;;;;;;;20.02;4.15;;;;;;;22.87;53.74;101299.44;5078149;28;20048;-55
2023/09/28 09:07:59;;;;;;;17.15;4.38;;;;;;;22.95;53.36;101298.31;5087469;28;20055;-51
2023/09/28 09:10:27;;;;;;;16.38;4.30;;;;;;;22.95;53.40;101294.69;5052319;28;20498;-51
2023/09/28 09:12:55;;;;;;;17.40;3.92;;;;;;;22.89;53.89;101287.81;5080530;28;20055;-51
2023/09/28 09:15:22;;;;;;;18.40;4.43;;;;;;;22.96;53.12;101282.28;5064306;28;20052;-54
2023/09/28 09:17:57;;;;;;;19.05;4.55;;;;;;;22.01;54.76;101286.53;5078576;28;20048;-54
2023/09/28 09:20:27;;;;;;;22.25;4.65;;;;;;;22.46;55.02;101291.19;5088218;28;20056;-57
2023/09/28 09:22:55;;;;;;;;;;;;;;;22.80;54.15;101301.34;5084491;28;20048;-55
2023/09/28 09:25:40;;;;;;;16.85;3.58;;;;;;;22.94;53.46;101290.28;5108502;28;19920;-55
2023/09/28 09:28:08;;;;;;;20.75;4.05;;;;;;;22.94;53.33;101279.84;5084131;28;20060;-54
2023/09/28 09:30:36;;;;;;;19.00;3.38;;;;;;;22.93;53.48;101289.47;5084294;28;20063;-57
2023/09/28 09:33:06;;;;;;;16.55;3.38;;;;;;;22.98;53.27;101296.75;5088913;28;20045;-56
2023/09/28 09:35:35;;;;;;;20.55;4.43;;;;;;;23.00;53.20;101309.22;5074269;28;20083;-55
2023/09/28 09:38:03;;;;;;;35.72;5.07;;;;;;;23.11;52.84;101303.72;5094220;28;20032;-55
2023/09/28 09:40:31;;;;;;;17.83;3.72;;;;;;;23.02;53.03;101298.41;5091389;28;20048;-54
2023/09/28 09:43:07;;;;;;;19.52;4.32;;;;;;;23.08;52.78;101298.88;5087747;28;20051;-52
2023/09/28 09:45:40;;;;;;;15.70;4.35;;;;;;;22.97;53.30;101303.56;5090469;28;20495;-55
2023/09/28 09:48:09;;;;;;;21.40;5.10;;;;;;;22.71;53.66;101300.81;5089989;28;20049;-52
2023/09/28 09:50:38;;;;;;;15.05;3.95;;;;;;;22.90;53.22;101312.72;5071470;28;20510;-55
2023/09/28 09:53:07;;;;;;;15.52;4.32;;;;;;;23.02;52.86;101312.44;5078814;28;20052;-54
2023/09/28 09:55:39;;;;;;;17.67;4.00;;;;;;;23.06;52.18;101312.50;5083762;28;20055;-55
2023/09/28 09:58:13;;;;;;;16.38;4.60;;;;;;;23.25;51.74;101317.94;5068498;28;20058;-55
2023/09/28 10:00:41;;;;;;;16.52;3.88;;;;;;;23.26;51.56;101311.09;5084541;28;20044;-55
2023/09/28 10:03:09;;;;;;;17.73;4.70;;;;;;;23.14;51.38;101303.75;5075841;28;20041;-58
2023/09/28 10:05:38;;;;;;;15.32;3.70;;;;;;;23.11;51.95;101301.72;5075164;28;20056;-55
2023/09/28 10:08:07;;;;;;;15.07;4.38;;;;;;;23.23;51.68;101301.47;5062754;28;20048;-57
2023/09/28 10:10:36;;;;;;;56.17;25.98;;;;;;;23.35;51.43;101309.66;5084679;28;20055;-55
2023/09/28 10:13:04;;;;;;;23.95;9.45;;;;;;;23.38;51.08;101308.88;5052748;28;20051;-57
2023/09/28 10:15:33;;;;;;;22.17;7.05;;;;;;;23.44;50.75;101303.72;5070417;28;20059;-56
2023/09/28 10:18:01;;;;;;;21.95;8.30;;;;;;;23.28;51.33;101292.72;5089656;28;20048;-54
2023/09/28 10:20:30;;;;;;;23.73;7.95;;;;;;;23.31;51.02;101283.50;5095615;28;20052;-56
2023/09/28 10:22:57;;;;;;;18.92;7.38;;;;;;;23.17;51.58;101272.06;5074366;28;20039;-53
2023/09/28 10:25:25;;;;;;;20.30;6.80;;;;;;;23.16;52.06;101278.91;5093666;28;20055;-54
2023/09/28 10:27:58;;;;;;;21.48;6.43;;;;;;;23.18;51.93;101281.31;5090677;28;20052;-51
2023/09/28 10:30:26;;;;;;;23.95;8.27;;;;;;;23.14;52.60;101284.09;5090178;28;20048;-53
2023/09/28 10:32:55;;;;;;;25.73;11.18;;;;;;;23.24;53.58;101279.78;5073154;28;20050;-55
2023/09/28 10:35:26;;;;;;;34.78;13.52;;;;;;;23.36;54.25;101291.56;5074194;28;20055;-56
2023/09/28 10:38:19;;;;;;;30.83;10.23;;;;;;;23.53;55.05;101286.53;5092625;28;20059;-55
2023/09/28 10:41:01;;;;;;;23.73;8.98;;;;;;;23.67;55.14;101278.22;5088151;28;20044;-54
2023/09/28 10:43:42;;;;;;;21.10;9.13;;;;;;;23.89;55.25;101263.94;5090319;28;20064;-54
2023/09/28 10:46:10;;;;;;;34.30;9.00;;;;;;;24.00;53.29;101253.59;5075349;28;20077;-53
2023/09/28 10:48:39;;;;;;;27.17;8.43;;;;;;;24.02;52.52;101248.41;5091861;28;20051;-55
2023/09/28 10:51:09;;;;;;;21.73;8.30;;;;;;;23.95;52.55;101247.50;5073922;28;20063;-55
2023/09/28 10:53:37;;;;;;;23.43;8.60;;;;;;;23.91;52.02;101257.91;5090001;28;20059;-52
2023/09/28 10:56:08;;;;;;;24.30;8.80;;;;;;;23.96;51.87;101258.38;5075254;28;20290;-55
2023/09/28 10:58:37;;;;;;;27.50;9.73;;;;;;;23.97;51.78;101262.78;5054943;28;20079;-54
2023/09/28 11:01:06;;;;;;;20.67;7.55;;;;;;;23.99;51.75;101254.78;5092419;28;20036;-54
2023/09/28 11:03:35;;;;;;;18.77;7.60;;;;;;;24.02;51.33;101258.84;5090380;28;20058;-53
2023/09/28 11:06:03;;;;;;;18.17;7.35;;;;;;;24.02;50.84;101256.03;5086739;28;20051;-55
2023/09/28 11:08:32;;;;;;;18.58;7.80;;;;;;;24.00;50.96;101259.25;5087286;28;20047;-55
2023/09/28 11:11:01;;;;;;;18.40;7.30;;;;;;;24.01;51.00;101255.22;5075275;28;20052;-53
2023/09/28 11:13:30;;;;;;;21.02;8.00;;;;;;;24.00;50.58;101261.25;5091201;28;20044;-60
2023/09/28 11:16:00;;;;;;;18.13;6.47;;;;;;;23.91;50.97;101258.72;5090260;28;20047;-57
2023/09/28 11:18:27;;;;;;;23.25;7.68;;;;;;;23.94;51.02;101262.75;5087192;28;20052;-60
2023/09/28 11:20:56;;;;;;;18.65;6.18;;;;;;;23.85;49.84;101263.09;5092045;28;20048;-59
2023/09/28 11:23:24;;;;;;;15.40;5.90;;;;;;;23.90;50.59;101257.09;5096928;28;20083;-59
2023/09/28 11:25:52;;;;;;;15.55;5.32;;;;;;;23.95;49.93;101253.13;5090731;28;20044;-53
2023/09/28 11:28:20;;;;;;;17.17;4.82;;;;;;;23.84;48.90;101238.97;5072890;28;20052;-57
2023/09/28 11:31:10;;;;;;;17.33;5.57;;;;;;;23.84;50.73;101232.53;5072670;28;20044;-59
2023/09/28 11:33:45;;;;;;;17.23;6.03;;;;;;;24.02;49.63;101237.16;5072127;28;20044;-56